Time;durP1;ratioP1;P1;durP2;ratioP2;P2;SDS_P1;SDS_P2;PMS_P1;PMS_P2;Temp;Humidity;BMP_temperature;BMP_pressure;BME280_temperature;BME280_humidity;BME280_pressure;Samples;Min_cycle;Max_cycle;Signal;HPM_P1;HPM_P2
2021/05/25 00:00:37;;;;;;;6.95;2.80;;;18.80;55.10;;;;;;5112932;28;20054;-73
2021/05/25 00:03:07;;;;;;;6.38;3.17;;;18.70;55.80;;;;;;5112500;28;20123;-75
2021/05/25 00:05:33;;;;;;;5.35;2.72;;;18.70;55.50;;;;;;5113081;28;20043;-74
2021/05/25 00:08:00;;;;;;;3.53;2.72;;;18.70;55.60;;;;;;5112751;28;20523;-73
2021/05/25 00:10:28;;;;;;;4.50;3.10;;;18.70;55.40;;;;;;5112884;28;20415;-74
2021/05/25 00:12:55;;;;;;;7.53;3.05;;;18.60;55.40;;;;;;5112638;28;20043;-75
2021/05/25 00:15:25;;;;;;;6.03;3.40;;;18.50;54.50;;;;;;5113319;28;20177;-74
2021/05/25 00:17:52;;;;;;;5.43;2.65;;;18.60;55.50;;;;;;5116272;28;20032;-74
2021/05/25 00:20:21;;;;;;;4.00;3.03;;;18.60;54.40;;;;;;5116397;28;20046;-74
2021/05/25 00:22:47;;;;;;;9.85;3.17;;;18.60;54.80;;;;;;5116327;28;20040;-74
2021/05/25 00:25:15;;;;;;;5.30;2.85;;;18.60;55.30;;;;;;5116145;28;20043;-74
2021/05/25 00:27:42;;;;;;;5.82;2.78;;;18.40;55.60;;;;;;5116503;28;20034;-73
2021/05/25 00:30:10;;;;;;;7.47;3.00;;;18.40;55.50;;;;;;5081144;28;20035;-75
2021/05/25 00:32:36;;;;;;;5.03;3.03;;;18.40;55.20;;;;;;5097954;28;20250;-75
2021/05/25 00:35:04;;;;;;;5.53;2.53;;;18.20;55.30;;;;;;5116237;28;20164;-74
2021/05/25 00:37:30;;;;;;;7.13;3.17;;;18.30;55.70;;;;;;5116114;28;20048;-73
2021/05/25 00:39:56;;;;;;;7.20;3.08;;;18.20;56.00;;;;;;5115840;28;20046;-74
2021/05/25 00:42:23;;;;;;;8.18;2.53;;;18.20;56.00;;;;;;5115800;28;20035;-73
2021/05/25 00:44:49;;;;;;;5.75;3.22;;;18.20;56.10;;;;;;5115742;28;20048;-73
2021/05/25 00:47:15;;;;;;;7.63;3.10;;;18.20;55.80;;;;;;5097638;28;20476;-74
2021/05/25 00:49:41;;;;;;;6.75;2.97;;;18.20;55.80;;;;;;5115562;28;20515;-74
2021/05/25 00:52:07;;;;;;;7.53;3.28;;;18.20;56.00;;;;;;5116206;28;20047;-74
2021/05/25 00:54:33;;;;;;;5.53;3.08;;;18.20;55.90;;;;;;5116011;28;20497;-74
2021/05/25 00:56:59;;;;;;;10.88;3.50;;;18.10;56.10;;;;;;5097428;28;20564;-74
2021/05/25 00:59:25;;;;;;;7.85;3.42;;;18.20;56.10;;;;;;5115647;28;20157;-75
2021/05/25 01:01:51;;;;;;;7.75;3.40;;;18.10;56.00;;;;;;5115706;28;20130;-74
2021/05/25 01:04:17;;;;;;;6.43;3.30;;;17.90;56.50;;;;;;5080434;28;20045;-74
2021/05/25 01:06:43;;;;;;;5.18;2.90;;;17.70;56.80;;;;;;5097268;28;20138;-75
2021/05/25 01:09:10;;;;;;;4.85;2.75;;;17.60;57.00;;;;;;5097083;28;20089;-73
2021/05/25 01:11:39;;;;;;;4.07;3.08;;;17.70;56.90;;;;;;5097119;28;20044;-73
2021/05/25 01:14:05;;;;;;;7.97;3.30;;;17.80;56.80;;;;;;5115155;28;20487;-74
2021/05/25 01:16:31;;;;;;;5.20;3.08;;;17.80;56.80;;;;;;5115449;28;20059;-73
2021/05/25 01:18:58;;;;;;;7.70;3.00;;;17.80;56.50;;;;;;5097283;28;20171;-74
2021/05/25 01:21:26;;;;;;;3.80;2.70;;;17.80;56.80;;;;;;5097292;28;20381;-76
2021/05/25 01:23:53;;;;;;;7.72;3.22;;;17.70;57.10;;;;;;5096983;28;20030;-75
2021/05/25 01:26:19;;;;;;;7.72;3.00;;;17.60;57.20;;;;;;5079989;28;20043;-74
2021/05/25 01:28:47;;;;;;;5.40;2.92;;;17.70;57.30;;;;;;5114188;28;20119;-74
2021/05/25 01:31:13;;;;;;;6.05;3.28;;;17.60;57.40;;;;;;5097429;28;20036;-75
2021/05/25 01:33:40;;;;;;;8.45;3.55;;;17.60;57.30;;;;;;5115236;28;20042;-76
2021/05/25 01:36:12;;;;;;;6.85;3.08;;;17.70;57.10;;;;;;5096923;28;20036;-75
2021/05/25 01:38:37;;;;;;;6.55;3.35;;;17.70;57.20;;;;;;5115237;28;20042;-73
2021/05/25 01:41:08;;;;;;;6.07;3.05;;;17.70;57.40;;;;;;5115014;28;20032;-74
2021/05/25 01:43:36;;;;;;;7.72;3.55;;;17.60;57.40;;;;;;5096459;28;20032;-73
2021/05/25 01:46:03;;;;;;;6.25;3.08;;;17.60;57.60;;;;;;5114771;28;20052;-74
2021/05/25 01:48:29;;;;;;;7.63;3.38;;;17.60;57.60;;;;;;5096529;28;20032;-75
2021/05/25 01:50:55;;;;;;;5.40;3.42;;;17.50;57.80;;;;;;5114514;28;20047;-75
2021/05/25 01:53:26;;;;;;;6.60;3.47;;;17.60;57.70;;;;;;5114670;28;20036;-74
2021/05/25 01:55:56;;;;;;;7.15;3.67;;;17.50;57.80;;;;;;5114742;28;20067;-73
2021/05/25 01:58:33;;;;;;;7.90;3.33;;;17.50;57.80;;;;;;5114616;28;20039;-73
2021/05/25 02:01:05;;;;;;;7.10;4.13;;;17.60;57.60;;;;;;5096460;28;20036;-73
2021/05/25 02:03:32;;;;;;;9.65;4.55;;;17.50;57.50;;;;;;5096015;28;20495;-72
2021/05/25 02:05:58;;;;;;;6.13;3.50;;;17.50;57.50;;;;;;5114104;28;20035;-72
2021/05/25 02:08:25;;;;;;;8.00;3.75;;;17.50;57.40;;;;;;5114571;28;20372;-74
2021/05/25 02:11:02;;;;;;;6.88;3.40;;;17.50;57.70;;;;;;5114561;28;20388;-73
2021/05/25 02:13:31;;;;;;;5.65;3.25;;;17.60;57.10;;;;;;5114076;28;20063;-73
2021/05/25 02:16:00;;;;;;;8.70;3.28;;;17.70;56.80;;;;;;5113916;28;20503;-74
2021/05/25 02:18:29;;;;;;;6.35;3.22;;;17.80;56.50;;;;;;5113948;28;20031;-73
2021/05/25 02:20:57;;;;;;;4.43;3.30;;;17.80;56.30;;;;;;5079070;28;20445;-72
2021/05/25 02:23:24;;;;;;;8.85;3.28;;;17.90;56.10;;;;;;5078824;28;20046;-73
2021/05/25 02:25:50;;;;;;;6.57;2.95;;;17.90;55.80;;;;;;5095685;28;20114;-72
2021/05/25 02:28:17;;;;;;;7.18;2.67;;;18.00;55.70;;;;;;5095589;28;20032;-72
2021/05/25 02:30:43;;;;;;;4.93;2.85;;;17.90;55.50;;;;;;5113742;28;20039;-74
2021/05/25 02:33:11;;;;;;;7.63;3.10;;;18.10;55.30;;;;;;5113531;28;20035;-73
2021/05/25 02:35:38;;;;;;;6.03;3.03;;;18.20;54.90;;;;;;5113518;28;20035;-73
2021/05/25 02:38:06;;;;;;;3.80;2.22;;;18.40;54.50;;;;;;5114102;28;20036;-73
2021/05/25 02:40:34;;;;;;;4.03;2.90;;;18.70;54.00;;;;;;5112740;28;20122;-74
2021/05/25 02:43:00;;;;;;;3.65;2.42;;;19.00;53.50;;;;;;5114082;28;20071;-74
2021/05/25 02:45:26;;;;;;;5.07;2.50;;;19.20;53.00;;;;;;5113294;28;20051;-72
2021/05/25 02:47:52;;;;;;;7.97;2.42;;;19.40;52.70;;;;;;5114138;28;20042;-74
2021/05/25 02:50:20;;;;;;;4.47;2.20;;;19.50;52.40;;;;;;5113580;28;20042;-74
2021/05/25 02:52:49;;;;;;;4.15;2.13;;;19.80;52.10;;;;;;5113660;28;20035;-75
2021/05/25 02:55:30;;;;;;;3.55;2.42;;;19.80;51.70;;;;;;5095301;28;20042;-73
2021/05/25 02:57:58;;;;;;;4.55;2.22;;;20.00;51.50;;;;;;5113477;28;20165;-72
2021/05/25 03:00:31;;;;;;;2.42;1.70;;;19.90;51.80;;;;;;5094894;28;20084;-72
2021/05/25 03:02:57;;;;;;;3.25;2.10;;;19.90;51.70;;;;;;5095017;28;20127;-74
2021/05/25 03:05:25;;;;;;;2.13;1.63;;;19.70;52.00;;;;;;5094785;28;20061;-73
2021/05/25 03:07:52;;;;;;;4.20;1.95;;;19.70;51.80;;;;;;5113273;28;20036;-75
2021/05/25 03:10:20;;;;;;;3.10;1.95;;;19.60;52.00;;;;;;5094967;28;20040;-76
2021/05/25 03:12:47;;;;;;;5.40;1.90;;;19.60;51.90;;;;;;5095317;28;20561;-74
2021/05/25 03:15:16;;;;;;;4.18;2.33;;;19.60;51.80;;;;;;5113279;28;20081;-74
2021/05/25 03:17:42;;;;;;;5.15;1.52;;;19.50;51.90;;;;;;5094902;28;20043;-74
2021/05/25 03:20:11;;;;;;;2.78;1.42;;;19.40;51.90;;;;;;5094794;28;20024;-74
2021/05/25 03:22:37;;;;;;;1.45;1.20;;;19.30;51.80;;;;;;5094931;28;20130;-72
2021/05/25 03:25:06;;;;;;;2.58;1.42;;;19.20;51.90;;;;;;5094822;28;20503;-75
2021/05/25 03:27:32;;;;;;;5.95;2.00;;;19.20;51.80;;;;;;5112792;28;20086;-74
2021/05/25 03:29:58;;;;;;;1.05;0.93;;;19.20;51.70;;;;;;5112756;28;20067;-74
2021/05/25 03:32:24;;;;;;;2.13;1.17;;;19.40;51.50;;;;;;5113311;28;20038;-74
2021/05/25 03:34:50;;;;;;;1.33;1.23;;;19.60;51.30;;;;;;5113319;28;20039;-75
2021/05/25 03:37:16;;;;;;;1.95;1.27;;;19.90;50.70;;;;;;5113382;28;20032;-75
2021/05/25 03:39:42;;;;;;;4.43;1.20;;;20.10;50.00;;;;;;5113330;28;20080;-77
2021/05/25 03:42:08;;;;;;;2.53;1.17;;;20.30;49.80;;;;;;5094552;28;20031;-76
2021/05/25 03:44:34;;;;;;;3.17;1.13;;;20.60;49.70;;;;;;5112664;28;20511;-75
2021/05/25 03:47:00;;;;;;;2.17;1.10;;;20.80;49.30;;;;;;5112859;28;20480;-75
2021/05/25 03:49:26;;;;;;;3.42;1.15;;;20.90;48.90;;;;;;5112893;28;20036;-72
2021/05/25 03:51:52;;;;;;;1.30;0.98;;;21.10;48.40;;;;;;5115731;28;20027;-74
2021/05/25 03:54:22;;;;;;;2.40;0.90;;;21.20;48.10;;;;;;5098425;28;20040;-74
2021/05/25 03:56:58;;;;;;;2.30;1.02;;;21.40;48.00;;;;;;5117060;28;20039;-74
2021/05/25 03:59:24;;;;;;;1.17;1.05;;;21.60;47.50;;;;;;5116575;28;20031;-74
2021/05/25 04:01:52;;;;;;;5.20;1.10;;;21.70;47.30;;;;;;5117134;28;20043;-73
2021/05/25 04:04:18;;;;;;;4.63;1.20;;;21.90;47.10;;;;;;5098470;28;20032;-74
2021/05/25 04:06:44;;;;;;;3.03;1.20;;;22.10;46.50;;;;;;5097745;28;20407;-73
2021/05/25 04:09:10;;;;;;;3.47;1.00;;;22.30;46.10;;;;;;5097666;28;20046;-76
2021/05/25 04:11:36;;;;;;;2.47;0.80;;;22.50;45.90;;;;;;5116805;28;20043;-75
2021/05/25 04:14:03;;;;;;;5.22;0.90;;;22.50;45.60;;;;;;5116426;28;20126;-76
2021/05/25 04:16:30;;;;;;;1.17;1.00;;;22.70;45.60;;;;;;5098358;28;20385;-75
2021/05/25 04:18:56;;;;;;;2.03;0.90;;;22.90;45.30;;;;;;5116499;28;20032;-77
2021/05/25 04:21:22;;;;;;;4.45;0.80;;;23.10;45.50;;;;;;5116467;28;20091;-78
2021/05/25 04:23:48;;;;;;;2.15;0.90;;;23.20;45.00;;;;;;5116422;28;20534;-79
2021/05/25 04:26:14;;;;;;;0.88;0.88;;;23.30;44.20;;;;;;5098012;28;20045;-79
2021/05/25 04:28:39;;;;;;;3.03;1.00;;;23.60;44.30;;;;;;5116291;28;20437;-77
2021/05/25 04:31:06;;;;;;;1.05;0.90;;;23.70;43.20;;;;;;5115985;28;20069;-80
2021/05/25 04:33:32;;;;;;;2.10;0.90;;;23.80;43.20;;;;;;5116628;28;20071;-75
2021/05/25 04:35:58;;;;;;;2.03;0.93;;;23.90;43.50;;;;;;5116361;28;20039;-76
2021/05/25 04:38:23;;;;;;;1.95;0.90;;;24.10;43.60;;;;;;5115811;28;20036;-77
2021/05/25 04:40:50;;;;;;;3.50;0.90;;;24.30;43.50;;;;;;5115958;28;20043;-80
2021/05/25 04:43:16;;;;;;;2.95;0.85;;;24.50;43.50;;;;;;5115899;28;20030;-87
2021/05/25 04:45:43;;;;;;;6.18;0.95;;;24.60;42.50;;;;;;5115566;28;20055;-82
2021/05/25 04:48:10;;;;;;;3.90;1.00;;;24.90;42.60;;;;;;5115997;28;20055;-85
2021/05/25 04:50:38;;;;;;;3.72;0.90;;;25.00;42.30;;;;;;5115665;28;20038;-82
2021/05/25 04:53:04;;;;;;;1.73;0.95;;;25.30;42.60;;;;;;5114714;28;20035;-80
2021/05/25 04:55:30;;;;;;;2.25;0.80;;;25.50;42.50;;;;;;5114565;28;20407;-83
2021/05/25 04:57:56;;;;;;;1.45;0.80;;;25.70;41.40;;;;;;5115588;28;20040;-83
2021/05/25 05:00:26;;;;;;;6.47;1.10;;;25.70;40.80;;;;;;5115556;28;20046;-78
2021/05/25 05:02:53;;;;;;;1.52;0.95;;;25.80;41.30;;;;;;5114967;28;20364;-74
2021/05/25 05:05:20;;;;;;;3.28;1.10;;;25.90;41.80;;;;;;5115447;28;20046;-73
2021/05/25 05:07:47;;;;;;;2.25;0.88;;;25.90;41.40;;;;;;5097054;28;20067;-71
2021/05/25 05:10:14;;;;;;;6.07;1.98;;;26.00;41.40;;;;;;5114809;28;20031;-73
2021/05/25 05:12:41;;;;;;;4.15;1.20;;;26.10;41.50;;;;;;5115126;28;20054;-71
2021/05/25 05:15:07;;;;;;;4.45;1.40;;;26.30;41.30;;;;;;5115744;28;20066;-73
2021/05/25 05:17:34;;;;;;;3.75;1.20;;;26.40;42.10;;;;;;5115588;28;20054;-71
2021/05/25 05:20:01;;;;;;;4.43;1.33;;;26.60;41.50;;;;;;5115044;28;20044;-71
2021/05/25 05:22:27;;;;;;;5.30;0.95;;;26.70;41.00;;;;;;5096744;28;20031;-71
2021/05/25 05:24:53;;;;;;;1.27;1.17;;;26.90;41.30;;;;;;5079904;28;20445;-73
2021/05/25 05:27:19;;;;;;;4.45;1.27;;;27.10;41.40;;;;;;5096761;28;20074;-72
2021/05/25 05:29:45;;;;;;;1.80;1.00;;;27.20;40.70;;;;;;5114763;28;20588;-72
2021/05/25 05:32:11;;;;;;;3.63;1.08;;;27.40;40.80;;;;;;5115244;28;20028;-72
2021/05/25 05:34:37;;;;;;;2.08;0.85;;;27.50;40.50;;;;;;5115157;28;20035;-72
2021/05/25 05:37:03;;;;;;;5.07;1.05;;;27.60;40.00;;;;;;5114750;28;20039;-71
2021/05/25 05:39:29;;;;;;;2.50;1.33;;;27.80;39.50;;;;;;5114941;28;20066;-73
2021/05/25 05:41:55;;;;;;;2.97;1.25;;;27.90;39.10;;;;;;5114528;28;20063;-73
2021/05/25 05:44:21;;;;;;;3.70;1.15;;;28.00;39.70;;;;;;5096693;28;20134;-73
2021/05/25 05:46:47;;;;;;;4.07;1.27;;;27.90;39.30;;;;;;5114681;28;20118;-80
2021/05/25 05:49:14;;;;;;;2.58;0.90;;;28.20;39.50;;;;;;5079497;28;20177;-78
2021/05/25 05:51:40;;;;;;;2.85;1.00;;;28.30;38.80;;;;;;5114578;28;20035;-76
2021/05/25 05:54:07;;;;;;;3.78;0.75;;;28.80;39.20;;;;;;5114727;28;20125;-74
2021/05/25 05:56:33;;;;;;;4.00;0.80;;;29.00;38.40;;;;;;5114380;28;20058;-74
2021/05/25 05:59:00;;;;;;;4.25;0.80;;;29.40;38.40;;;;;;5114424;28;20043;-76
2021/05/25 06:01:26;;;;;;;3.15;0.82;;;29.50;36.80;;;;;;5114355;28;20032;-76
2021/05/25 06:03:52;;;;;;;5.15;1.00;;;29.80;36.80;;;;;;5114424;28;20027;-76
2021/05/25 06:06:18;;;;;;;1.77;0.80;;;29.90;36.60;;;;;;5114119;28;20036;-76
2021/05/25 06:08:44;;;;;;;2.35;0.75;;;30.10;36.80;;;;;;5114379;28;20084;-75
2021/05/25 06:11:10;;;;;;;1.65;0.60;;;29.70;36.00;;;;;;5095571;28;20070;-75
2021/05/25 06:13:36;;;;;;;2.28;0.70;;;29.60;35.70;;;;;;5095939;28;20043;-75
2021/05/25 06:16:03;;;;;;;3.10;0.80;;;29.50;35.60;;;;;;5113816;28;20039;-77
2021/05/25 06:18:34;;;;;;;2.40;0.88;;;29.40;35.90;;;;;;5095788;28;20428;-77
2021/05/25 06:21:02;;;;;;;3.35;0.80;;;29.30;36.30;;;;;;5113845;28;20028;-76
2021/05/25 06:23:29;;;;;;;4.22;1.00;;;29.20;36.50;;;;;;5095682;28;20488;-79
2021/05/25 06:25:56;;;;;;;3.50;0.82;;;29.30;36.50;;;;;;5095481;28;20047;-77
2021/05/25 06:28:22;;;;;;;3.60;0.80;;;29.20;36.30;;;;;;5114227;28;20039;-77
2021/05/25 06:30:47;;;;;;;2.88;1.00;;;29.30;35.50;;;;;;5113882;28;20508;-78
2021/05/25 06:33:13;;;;;;;4.63;0.80;;;29.20;35.90;;;;;;5095803;28;20517;-77
2021/05/25 06:35:39;;;;;;;4.72;0.75;;;29.30;35.70;;;;;;5113958;28;20035;-76
2021/05/25 06:38:07;;;;;;;2.22;0.77;;;29.30;35.80;;;;;;5113374;28;20509;-77
2021/05/25 06:40:32;;;;;;;1.38;0.75;;;29.20;35.60;;;;;;5112801;28;20191;-77
2021/05/25 06:42:59;;;;;;;4.40;0.80;;;29.40;36.40;;;;;;5112327;28;20095;-78
2021/05/25 06:45:28;;;;;;;1.08;0.68;;;29.40;35.00;;;;;;5111930;28;20453;-74
2021/05/25 06:47:54;;;;;;;2.00;1.08;;;29.50;34.30;;;;;;5094366;28;20035;-75
2021/05/25 06:50:20;;;;;;;2.17;0.70;;;29.40;33.20;;;;;;5113016;28;20035;-76
2021/05/25 06:52:46;;;;;;;2.70;0.70;;;29.20;34.30;;;;;;5113393;28;20131;-78
2021/05/25 06:55:13;;;;;;;2.15;0.65;;;29.10;35.20;;;;;;5113583;28;20089;-77
2021/05/25 06:57:39;;;;;;;1.52;0.57;;;29.00;35.30;;;;;;5095586;28;20440;-76
2021/05/25 07:00:11;;;;;;;2.58;0.88;;;29.10;35.00;;;;;;5113175;28;20407;-77
2021/05/25 07:02:39;;;;;;;2.55;1.10;;;29.20;34.70;;;;;;5095040;28;20040;-74
2021/05/25 07:05:07;;;;;;;2.70;0.80;;;29.30;34.80;;;;;;5113180;28;20035;-77
2021/05/25 07:07:34;;;;;;;2.97;0.80;;;29.20;34.80;;;;;;5112920;28;20437;-76
2021/05/25 07:10:00;;;;;;;2.72;0.90;;;28.90;34.90;;;;;;5113293;28;20039;-77
2021/05/25 07:12:26;;;;;;;5.10;0.90;;;28.80;35.10;;;;;;5113307;28;20112;-78
2021/05/25 07:14:52;;;;;;;1.15;0.60;;;28.80;34.90;;;;;;5113067;28;20027;-77
2021/05/25 07:17:19;;;;;;;3.75;0.90;;;28.40;34.60;;;;;;5112999;28;20046;-78
2021/05/25 07:19:45;;;;;;;2.55;0.60;;;27.90;34.70;;;;;;5113132;28;20130;-76
2021/05/25 07:22:11;;;;;;;2.20;0.68;;;27.80;35.70;;;;;;5113227;28;20118;-77
2021/05/25 07:24:37;;;;;;;2.28;0.70;;;27.90;35.70;;;;;;5095422;28;20045;-79
2021/05/25 07:27:03;;;;;;;3.33;0.90;;;27.90;35.70;;;;;;5116252;28;20043;-78
2021/05/25 07:29:29;;;;;;;4.72;0.90;;;28.00;35.40;;;;;;5117325;28;20088;-81
2021/05/25 07:31:55;;;;;;;1.90;1.05;;;28.10;34.90;;;;;;5117580;28;20458;-77
2021/05/25 07:34:21;;;;;;;7.15;0.95;;;28.10;34.70;;;;;;5116483;28;20050;-78
2021/05/25 07:36:47;;;;;;;1.80;0.77;;;28.00;34.80;;;;;;5116621;28;20134;-77
2021/05/25 07:39:15;;;;;;;2.05;0.70;;;28.00;35.20;;;;;;5117003;28;20043;-76
2021/05/25 07:41:41;;;;;;;1.77;0.65;;;28.00;35.00;;;;;;5116562;28;20028;-71
2021/05/25 07:44:07;;;;;;;3.47;1.20;;;27.90;34.80;;;;;;5116489;28;20252;-71
2021/05/25 07:46:33;;;;;;;3.63;0.82;;;27.90;34.80;;;;;;5116448;28;20586;-71
2021/05/25 07:49:00;;;;;;;4.93;0.80;;;27.80;34.80;;;;;;5116986;28;20030;-72
2021/05/25 07:51:26;;;;;;;6.10;0.80;;;27.80;35.00;;;;;;5116266;28;20043;-72
2021/05/25 07:53:52;;;;;;;10.55;1.50;;;27.80;34.90;;;;;;5116534;28;20031;-74
